sensor_id;sensor_type;location;lat;lon;timestamp;temperature;humidity
12849;DHT22;6493;50.928;7.172;2023-06-26T00:03:29;21.30;40.40
12849;DHT22;6493;50.928;7.172;2023-06-26T00:08:34;21.10;40.50
12849;DHT22;6493;50.928;7.172;2023-06-26T00:13:38;21.10;40.60
12849;DHT22;6493;50.928;7.172;2023-06-26T00:18:43;21.00;40.70
12849;DHT22;6493;50.928;7.172;2023-06-26T00:23:46;20.90;40.80
12849;DHT22;6493;50.928;7.172;2023-06-26T00:28:50;20.80;40.90
12849;DHT22;6493;50.928;7.172;2023-06-26T00:33:56;20.70;40.90
12849;DHT22;6493;50.928;7.172;2023-06-26T00:39:00;20.60;41.10
12849;DHT22;6493;50.928;7.172;2023-06-26T00:44:06;20.60;41.10
12849;DHT22;6493;50.928;7.172;2023-06-26T00:49:11;20.40;41.20
12849;DHT22;6493;50.928;7.172;2023-06-26T00:54:16;20.40;41.40
12849;DHT22;6493;50.928;7.172;2023-06-26T00:59:23;20.30;41.40
12849;DHT22;6493;50.928;7.172;2023-06-26T01:04:28;20.20;41.50
12849;DHT22;6493;50.928;7.172;2023-06-26T01:09:35;20.10;41.70
12849;DHT22;6493;50.928;7.172;2023-06-26T01:14:38;20.10;41.80
12849;DHT22;6493;50.928;7.172;2023-06-26T01:19:44;20.00;41.80
12849;DHT22;6493;50.928;7.172;2023-06-26T01:25:02;19.90;42.00
12849;DHT22;6493;50.928;7.172;2023-06-26T01:30:09;19.80;42.30
12849;DHT22;6493;50.928;7.172;2023-06-26T01:35:15;19.80;42.20
12849;DHT22;6493;50.928;7.172;2023-06-26T01:40:19;19.80;42.20
12849;DHT22;6493;50.928;7.172;2023-06-26T01:45:27;19.70;42.20
12849;DHT22;6493;50.928;7.172;2023-06-26T01:50:33;19.70;42.40
12849;DHT22;6493;50.928;7.172;2023-06-26T01:55:43;19.60;42.30
12849;DHT22;6493;50.928;7.172;2023-06-26T02:00:53;19.60;43.00
12849;DHT22;6493;50.928;7.172;2023-06-26T02:05:57;19.50;42.50
12849;DHT22;6493;50.928;7.172;2023-06-26T02:11:02;19.40;42.40
12849;DHT22;6493;50.928;7.172;2023-06-26T02:16:07;19.40;42.60
12849;DHT22;6493;50.928;7.172;2023-06-26T02:21:11;19.30;42.70
12849;DHT22;6493;50.928;7.172;2023-06-26T02:26:15;19.30;42.70
12849;DHT22;6493;50.928;7.172;2023-06-26T02:31:20;19.20;42.70
12849;DHT22;6493;50.928;7.172;2023-06-26T02:36:24;19.20;42.90
12849;DHT22;6493;50.928;7.172;2023-06-26T02:41:27;19.10;43.00
12849;DHT22;6493;50.928;7.172;2023-06-26T02:46:32;19.00;43.00
12849;DHT22;6493;50.928;7.172;2023-06-26T02:51:37;19.00;43.20
12849;DHT22;6493;50.928;7.172;2023-06-26T02:56:48;18.90;43.10
12849;DHT22;6493;50.928;7.172;2023-06-26T03:01:58;18.80;43.20
12849;DHT22;6493;50.928;7.172;2023-06-26T03:07:11;18.70;43.40
12849;DHT22;6493;50.928;7.172;2023-06-26T03:12:16;18.70;43.50
12849;DHT22;6493;50.928;7.172;2023-06-26T03:17:21;18.60;43.50
12849;DHT22;6493;50.928;7.172;2023-06-26T03:22:28;18.60;43.70
12849;DHT22;6493;50.928;7.172;2023-06-26T03:27:32;18.50;43.70
12849;DHT22;6493;50.928;7.172;2023-06-26T03:32:37;18.40;43.90
12849;DHT22;6493;50.928;7.172;2023-06-26T03:37:41;18.40;44.00
12849;DHT22;6493;50.928;7.172;2023-06-26T03:42:46;18.30;44.50
12849;DHT22;6493;50.928;7.172;2023-06-26T03:47:52;18.30;43.90
12849;DHT22;6493;50.928;7.172;2023-06-26T03:52:55;18.30;44.20
12849;DHT22;6493;50.928;7.172;2023-06-26T03:57:59;18.30;44.30
12849;DHT22;6493;50.928;7.172;2023-06-26T04:03:04;18.40;44.40
12849;DHT22;6493;50.928;7.172;2023-06-26T04:08:08;18.50;45.00
12849;DHT22;6493;50.928;7.172;2023-06-26T04:13:12;18.80;45.60
12849;DHT22;6493;50.928;7.172;2023-06-26T04:18:17;19.20;45.90
12849;DHT22;6493;50.928;7.172;2023-06-26T04:23:22;19.70;46.10
12849;DHT22;6493;50.928;7.172;2023-06-26T04:28:26;20.30;46.20
12849;DHT22;6493;50.928;7.172;2023-06-26T04:33:31;20.80;46.20
12849;DHT22;6493;50.928;7.172;2023-06-26T04:38:35;21.30;46.20
12849;DHT22;6493;50.928;7.172;2023-06-26T04:43:39;21.80;46.10
12849;DHT22;6493;50.928;7.172;2023-06-26T04:48:44;22.20;45.20
12849;DHT22;6493;50.928;7.172;2023-06-26T04:53:48;22.30;44.90
12849;DHT22;6493;50.928;7.172;2023-06-26T04:58:51;22.50;45.20
12849;DHT22;6493;50.928;7.172;2023-06-26T05:03:57;22.90;45.60
12849;DHT22;6493;50.928;7.172;2023-06-26T05:09:00;23.30;45.70
12849;DHT22;6493;50.928;7.172;2023-06-26T05:14:04;23.80;45.60
12849;DHT22;6493;50.928;7.172;2023-06-26T05:19:11;24.20;45.70
12849;DHT22;6493;50.928;7.172;2023-06-26T05:24:15;24.30;44.50
12849;DHT22;6493;50.928;7.172;2023-06-26T05:29:20;24.40;44.00
12849;DHT22;6493;50.928;7.172;2023-06-26T05:34:25;24.50;44.20
12849;DHT22;6493;50.928;7.172;2023-06-26T05:39:31;24.60;44.30
12849;DHT22;6493;50.928;7.172;2023-06-26T05:44:34;24.70;44.00
12849;DHT22;6493;50.928;7.172;2023-06-26T05:49:40;24.80;43.70
12849;DHT22;6493;50.928;7.172;2023-06-26T05:54:44;24.80;43.00
12849;DHT22;6493;50.928;7.172;2023-06-26T05:59:47;24.60;42.60
12849;DHT22;6493;50.928;7.172;2023-06-26T06:04:53;24.30;42.60
12849;DHT22;6493;50.928;7.172;2023-06-26T06:09:56;24.10;42.80
12849;DHT22;6493;50.928;7.172;2023-06-26T06:15:00;24.10;43.50
12849;DHT22;6493;50.928;7.172;2023-06-26T06:20:06;24.40;44.20
12849;DHT22;6493;50.928;7.172;2023-06-26T06:25:09;24.70;43.50
12849;DHT22;6493;50.928;7.172;2023-06-26T06:30:13;24.80;43.20
12849;DHT22;6493;50.928;7.172;2023-06-26T06:35:19;24.90;43.30
12849;DHT22;6493;50.928;7.172;2023-06-26T06:40:27;25.20;43.30
12849;DHT22;6493;50.928;7.172;2023-06-26T06:45:31;25.30;42.90
12849;DHT22;6493;50.928;7.172;2023-06-26T06:50:36;25.20;42.20
12849;DHT22;6493;50.928;7.172;2023-06-26T06:55:40;24.80;41.70
12849;DHT22;6493;50.928;7.172;2023-06-26T07:00:44;24.30;41.60
12849;DHT22;6493;50.928;7.172;2023-06-26T07:05:49;23.70;41.70
12849;DHT22;6493;50.928;7.172;2023-06-26T07:10:52;23.30;42.90
12849;DHT22;6493;50.928;7.172;2023-06-26T07:15:56;23.10;42.70
12849;DHT22;6493;50.928;7.172;2023-06-26T07:21:01;23.00;42.90
12849;DHT22;6493;50.928;7.172;2023-06-26T07:26:05;23.00;43.50
12849;DHT22;6493;50.928;7.172;2023-06-26T07:31:09;22.90;43.30
12849;DHT22;6493;50.928;7.172;2023-06-26T07:36:14;22.80;43.30
12849;DHT22;6493;50.928;7.172;2023-06-26T07:41:18;22.60;43.70
12849;DHT22;6493;50.928;7.172;2023-06-26T07:46:21;22.70;44.00
12849;DHT22;6493;50.928;7.172;2023-06-26T07:51:26;22.70;44.00
12849;DHT22;6493;50.928;7.172;2023-06-26T07:56:30;22.70;44.00
12849;DHT22;6493;50.928;7.172;2023-06-26T08:01:34;22.60;44.00
12849;DHT22;6493;50.928;7.172;2023-06-26T08:06:39;22.60;44.30
12849;DHT22;6493;50.928;7.172;2023-06-26T08:11:43;22.60;44.40
12849;DHT22;6493;50.928;7.172;2023-06-26T08:16:47;22.80;44.50
12849;DHT22;6493;50.928;7.172;2023-06-26T08:21:52;22.90;44.60
12849;DHT22;6493;50.928;7.172;2023-06-26T08:26:56;23.00;44.50
12849;DHT22;6493;50.928;7.172;2023-06-26T08:32:01;23.10;44.50
12849;DHT22;6493;50.928;7.172;2023-06-26T08:37:07;23.10;44.30
12849;DHT22;6493;50.928;7.172;2023-06-26T08:42:12;23.20;44.70
12849;DHT22;6493;50.928;7.172;2023-06-26T08:47:15;23.30;44.60
12849;DHT22;6493;50.928;7.172;2023-06-26T08:52:23;23.40;44.80
12849;DHT22;6493;50.928;7.172;2023-06-26T08:57:31;23.60;44.60
12849;DHT22;6493;50.928;7.172;2023-06-26T09:02:36;23.60;44.30
12849;DHT22;6493;50.928;7.172;2023-06-26T09:07:41;23.60;44.80
12849;DHT22;6493;50.928;7.172;2023-06-26T09:12:46;23.60;44.40
12849;DHT22;6493;50.928;7.172;2023-06-26T09:17:50;23.70;44.40
12849;DHT22;6493;50.928;7.172;2023-06-26T09:23:01;23.60;44.10
12849;DHT22;6493;50.928;7.172;2023-06-26T09:28:05;23.60;44.10
12849;DHT22;6493;50.928;7.172;2023-06-26T09:33:15;23.60;44.20
12849;DHT22;6493;50.928;7.172;2023-06-26T09:38:20;23.60;44.40
12849;DHT22;6493;50.928;7.172;2023-06-26T09:43:24;23.60;44.40
12849;DHT22;6493;50.928;7.172;2023-06-26T09:48:28;23.70;44.60
12849;DHT22;6493;50.928;7.172;2023-06-26T09:53:35;23.80;44.10
12849;DHT22;6493;50.928;7.172;2023-06-26T09:58:39;23.70;44.10
12849;DHT22;6493;50.928;7.172;2023-06-26T10:03:43;23.80;44.10
12849;DHT22;6493;50.928;7.172;2023-06-26T10:08:49;23.80;43.90
12849;DHT22;6493;50.928;7.172;2023-06-26T10:13:55;23.60;43.60
12849;DHT22;6493;50.928;7.172;2023-06-26T10:19:19;23.60;43.80
12849;DHT22;6493;50.928;7.172;2023-06-26T10:24:32;23.80;44.30
12849;DHT22;6493;50.928;7.172;2023-06-26T10:29:36;23.90;43.90
12849;DHT22;6493;50.928;7.172;2023-06-26T10:34:41;24.00;43.60
12849;DHT22;6493;50.928;7.172;2023-06-26T10:39:48;24.00;43.60
12849;DHT22;6493;50.928;7.172;2023-06-26T10:44:52;24.20;43.60
12849;DHT22;6493;50.928;7.172;2023-06-26T10:49:56;24.30;43.80
12849;DHT22;6493;50.928;7.172;2023-06-26T10:55:17;24.50;43.00
12849;DHT22;6493;50.928;7.172;2023-06-26T11:00:20;24.50;42.40
12849;DHT22;6493;50.928;7.172;2023-06-26T11:05:25;24.40;42.30
12849;DHT22;6493;50.928;7.172;2023-06-26T11:10:48;24.40;42.00
12849;DHT22;6493;50.928;7.172;2023-06-26T11:15:52;24.30;41.80
12849;DHT22;6493;50.928;7.172;2023-06-26T11:21:05;24.30;41.50
12849;DHT22;6493;50.928;7.172;2023-06-26T11:26:18;24.20;41.30
12849;DHT22;6493;50.928;7.172;2023-06-26T11:31:24;24.10;41.50
12849;DHT22;6493;50.928;7.172;2023-06-26T11:36:28;24.20;41.50
12849;DHT22;6493;50.928;7.172;2023-06-26T11:41:35;24.20;41.40
12849;DHT22;6493;50.928;7.172;2023-06-26T11:46:39;24.10;41.20
12849;DHT22;6493;50.928;7.172;2023-06-26T11:51:43;24.00;41.30
12849;DHT22;6493;50.928;7.172;2023-06-26T11:56:56;24.20;41.00
12849;DHT22;6493;50.928;7.172;2023-06-26T12:02:04;24.30;41.10
12849;DHT22;6493;50.928;7.172;2023-06-26T12:07:09;24.40;41.10
12849;DHT22;6493;50.928;7.172;2023-06-26T12:12:17;24.60;41.20
12849;DHT22;6493;50.928;7.172;2023-06-26T12:17:23;24.80;40.50
12849;DHT22;6493;50.928;7.172;2023-06-26T12:22:34;24.80;39.60
12849;DHT22;6493;50.928;7.172;2023-06-26T12:27:39;24.60;39.60
12849;DHT22;6493;50.928;7.172;2023-06-26T12:32:44;24.50;40.50
12849;DHT22;6493;50.928;7.172;2023-06-26T12:37:49;24.60;39.90
12849;DHT22;6493;50.928;7.172;2023-06-26T12:42:55;24.70;39.90
12849;DHT22;6493;50.928;7.172;2023-06-26T12:48:07;24.90;39.50
12849;DHT22;6493;50.928;7.172;2023-06-26T12:53:11;24.90;39.20
12849;DHT22;6493;50.928;7.172;2023-06-26T12:58:18;24.80;38.80
12849;DHT22;6493;50.928;7.172;2023-06-26T13:03:21;24.50;38.70
12849;DHT22;6493;50.928;7.172;2023-06-26T13:08:25;24.40;38.90
12849;DHT22;6493;50.928;7.172;2023-06-26T13:13:31;24.20;39.00
12849;DHT22;6493;50.928;7.172;2023-06-26T13:18:35;24.00;39.10
12849;DHT22;6493;50.928;7.172;2023-06-26T13:23:38;24.00;39.50
12849;DHT22;6493;50.928;7.172;2023-06-26T13:28:43;24.00;39.30
12849;DHT22;6493;50.928;7.172;2023-06-26T13:33:48;24.10;39.20
12849;DHT22;6493;50.928;7.172;2023-06-26T13:38:52;24.00;38.80
12849;DHT22;6493;50.928;7.172;2023-06-26T13:43:59;23.90;38.90
12849;DHT22;6493;50.928;7.172;2023-06-26T13:49:17;23.80;38.90
12849;DHT22;6493;50.928;7.172;2023-06-26T13:54:21;23.80;38.60
12849;DHT22;6493;50.928;7.172;2023-06-26T13:59:26;23.80;38.50
12849;DHT22;6493;50.928;7.172;2023-06-26T14:04:29;23.70;38.70
12849;DHT22;6493;50.928;7.172;2023-06-26T14:09:33;23.70;39.40
12849;DHT22;6493;50.928;7.172;2023-06-26T14:14:38;23.80;38.70
12849;DHT22;6493;50.928;7.172;2023-06-26T14:19:42;24.00;38.80
12849;DHT22;6493;50.928;7.172;2023-06-26T14:24:48;24.10;38.40
12849;DHT22;6493;50.928;7.172;2023-06-26T14:29:53;23.90;37.90
12849;DHT22;6493;50.928;7.172;2023-06-26T14:34:57;23.90;37.60
12849;DHT22;6493;50.928;7.172;2023-06-26T14:40:01;23.90;37.80
12849;DHT22;6493;50.928;7.172;2023-06-26T14:45:08;23.80;37.80
12849;DHT22;6493;50.928;7.172;2023-06-26T14:50:13;23.90;37.40
12849;DHT22;6493;50.928;7.172;2023-06-26T14:55:17;23.90;37.60
12849;DHT22;6493;50.928;7.172;2023-06-26T15:00:22;24.00;37.50
12849;DHT22;6493;50.928;7.172;2023-06-26T15:05:26;24.10;37.10
12849;DHT22;6493;50.928;7.172;2023-06-26T15:10:29;24.00;37.00
12849;DHT22;6493;50.928;7.172;2023-06-26T15:15:37;24.00;37.10
12849;DHT22;6493;50.928;7.172;2023-06-26T15:20:40;23.90;36.80
12849;DHT22;6493;50.928;7.172;2023-06-26T15:25:44;23.70;36.80
12849;DHT22;6493;50.928;7.172;2023-06-26T15:30:49;23.60;36.70
12849;DHT22;6493;50.928;7.172;2023-06-26T15:35:53;23.40;36.50
12849;DHT22;6493;50.928;7.172;2023-06-26T15:40:56;23.20;36.60
12849;DHT22;6493;50.928;7.172;2023-06-26T15:46:02;23.20;37.40
12849;DHT22;6493;50.928;7.172;2023-06-26T15:51:06;23.10;36.40
12849;DHT22;6493;50.928;7.172;2023-06-26T15:56:11;22.90;36.50
12849;DHT22;6493;50.928;7.172;2023-06-26T16:01:19;22.80;36.40
12849;DHT22;6493;50.928;7.172;2023-06-26T16:06:23;22.70;36.50
12849;DHT22;6493;50.928;7.172;2023-06-26T16:11:26;22.60;36.30
12849;DHT22;6493;50.928;7.172;2023-06-26T16:16:32;22.50;36.50
12849;DHT22;6493;50.928;7.172;2023-06-26T16:21:35;22.40;36.40
12849;DHT22;6493;50.928;7.172;2023-06-26T16:26:39;22.40;36.50
12849;DHT22;6493;50.928;7.172;2023-06-26T16:31:44;22.30;36.40
12849;DHT22;6493;50.928;7.172;2023-06-26T16:36:48;22.30;36.50
12849;DHT22;6493;50.928;7.172;2023-06-26T16:41:53;22.30;36.40
12849;DHT22;6493;50.928;7.172;2023-06-26T16:46:59;22.20;36.40
12849;DHT22;6493;50.928;7.172;2023-06-26T16:52:04;22.20;36.40
12849;DHT22;6493;50.928;7.172;2023-06-26T16:57:08;22.10;36.50
12849;DHT22;6493;50.928;7.172;2023-06-26T17:02:13;22.00;36.40
12849;DHT22;6493;50.928;7.172;2023-06-26T17:07:17;21.90;36.20
12849;DHT22;6493;50.928;7.172;2023-06-26T17:12:22;21.80;36.30
12849;DHT22;6493;50.928;7.172;2023-06-26T17:17:29;21.70;36.20
12849;DHT22;6493;50.928;7.172;2023-06-26T17:22:33;21.50;36.00
12849;DHT22;6493;50.928;7.172;2023-06-26T17:27:37;21.40;36.10
12849;DHT22;6493;50.928;7.172;2023-06-26T17:32:43;21.30;36.10
12849;DHT22;6493;50.928;7.172;2023-06-26T17:37:47;21.20;36.40
12849;DHT22;6493;50.928;7.172;2023-06-26T17:42:51;21.10;36.30
12849;DHT22;6493;50.928;7.172;2023-06-26T17:47:57;21.00;36.40
12849;DHT22;6493;50.928;7.172;2023-06-26T17:53:01;21.00;36.50
12849;DHT22;6493;50.928;7.172;2023-06-26T17:58:04;20.90;36.40
12849;DHT22;6493;50.928;7.172;2023-06-26T18:03:09;20.80;36.40
12849;DHT22;6493;50.928;7.172;2023-06-26T18:08:13;20.70;36.40
12849;DHT22;6493;50.928;7.172;2023-06-26T18:13:17;20.60;36.50
12849;DHT22;6493;50.928;7.172;2023-06-26T18:18:22;20.50;36.60
12849;DHT22;6493;50.928;7.172;2023-06-26T18:23:26;20.40;36.70
12849;DHT22;6493;50.928;7.172;2023-06-26T18:28:30;20.30;36.70
12849;DHT22;6493;50.928;7.172;2023-06-26T18:33:35;20.20;36.70
12849;DHT22;6493;50.928;7.172;2023-06-26T18:38:40;20.10;36.80
12849;DHT22;6493;50.928;7.172;2023-06-26T18:43:44;19.90;36.90
12849;DHT22;6493;50.928;7.172;2023-06-26T18:48:59;19.80;37.00
12849;DHT22;6493;50.928;7.172;2023-06-26T18:54:03;19.80;37.10
12849;DHT22;6493;50.928;7.172;2023-06-26T18:59:07;19.70;37.10
12849;DHT22;6493;50.928;7.172;2023-06-26T19:04:12;19.60;37.10
12849;DHT22;6493;50.928;7.172;2023-06-26T19:09:17;19.60;37.30
12849;DHT22;6493;50.928;7.172;2023-06-26T19:14:21;19.50;37.30
12849;DHT22;6493;50.928;7.172;2023-06-26T19:19:26;19.40;37.30
12849;DHT22;6493;50.928;7.172;2023-06-26T19:24:30;19.30;37.30
12849;DHT22;6493;50.928;7.172;2023-06-26T19:29:33;19.20;37.30
12849;DHT22;6493;50.928;7.172;2023-06-26T19:34:38;19.10;37.30
12849;DHT22;6493;50.928;7.172;2023-06-26T19:39:42;19.00;37.40
12849;DHT22;6493;50.928;7.172;2023-06-26T19:44:46;18.90;37.40
12849;DHT22;6493;50.928;7.172;2023-06-26T19:49:51;18.80;37.50
12849;DHT22;6493;50.928;7.172;2023-06-26T19:54:55;18.70;37.50
12849;DHT22;6493;50.928;7.172;2023-06-26T19:59:58;18.70;37.60
12849;DHT22;6493;50.928;7.172;2023-06-26T20:05:04;18.60;37.60
12849;DHT22;6493;50.928;7.172;2023-06-26T20:10:08;18.50;37.60
12849;DHT22;6493;50.928;7.172;2023-06-26T20:15:12;18.40;37.60
12849;DHT22;6493;50.928;7.172;2023-06-26T20:20:17;18.30;37.60
12849;DHT22;6493;50.928;7.172;2023-06-26T20:25:20;18.20;37.60
12849;DHT22;6493;50.928;7.172;2023-06-26T20:30:24;18.10;37.60
12849;DHT22;6493;50.928;7.172;2023-06-26T20:35:29;18.00;37.60
12849;DHT22;6493;50.928;7.172;2023-06-26T20:40:33;17.90;37.70
12849;DHT22;6493;50.928;7.172;2023-06-26T20:45:37;17.90;37.90
12849;DHT22;6493;50.928;7.172;2023-06-26T20:50:44;17.80;37.90
12849;DHT22;6493;50.928;7.172;2023-06-26T20:55:48;17.70;37.90
12849;DHT22;6493;50.928;7.172;2023-06-26T21:00:52;17.60;37.90
12849;DHT22;6493;50.928;7.172;2023-06-26T21:05:59;17.60;38.00
12849;DHT22;6493;50.928;7.172;2023-06-26T21:11:02;17.50;38.10
12849;DHT22;6493;50.928;7.172;2023-06-26T21:16:06;17.40;38.80
12849;DHT22;6493;50.928;7.172;2023-06-26T21:21:11;17.30;38.20
12849;DHT22;6493;50.928;7.172;2023-06-26T21:26:15;17.20;38.30
12849;DHT22;6493;50.928;7.172;2023-06-26T21:31:18;17.10;38.40
12849;DHT22;6493;50.928;7.172;2023-06-26T21:36:24;17.00;38.40
12849;DHT22;6493;50.928;7.172;2023-06-26T21:41:27;16.90;38.40
12849;DHT22;6493;50.928;7.172;2023-06-26T21:46:31;16.80;38.50
12849;DHT22;6493;50.928;7.172;2023-06-26T21:51:36;16.70;38.50
12849;DHT22;6493;50.928;7.172;2023-06-26T21:56:40;16.70;38.70
12849;DHT22;6493;50.928;7.172;2023-06-26T22:01:44;16.60;38.80
12849;DHT22;6493;50.928;7.172;2023-06-26T22:06:50;16.60;38.90
12849;DHT22;6493;50.928;7.172;2023-06-26T22:11:57;16.50;39.00
12849;DHT22;6493;50.928;7.172;2023-06-26T22:17:01;16.50;39.20
12849;DHT22;6493;50.928;7.172;2023-06-26T22:22:07;16.40;39.20
12849;DHT22;6493;50.928;7.172;2023-06-26T22:27:10;16.30;39.20
12849;DHT22;6493;50.928;7.172;2023-06-26T22:32:14;16.20;39.30
12849;DHT22;6493;50.928;7.172;2023-06-26T22:37:20;16.20;39.40
12849;DHT22;6493;50.928;7.172;2023-06-26T22:42:23;16.10;39.60
12849;DHT22;6493;50.928;7.172;2023-06-26T22:47:27;16.00;39.60
12849;DHT22;6493;50.928;7.172;2023-06-26T22:52:33;15.90;39.60
12849;DHT22;6493;50.928;7.172;2023-06-26T22:57:37;15.80;39.80
12849;DHT22;6493;50.928;7.172;2023-06-26T23:02:41;15.80;39.90
12849;DHT22;6493;50.928;7.172;2023-06-26T23:07:46;15.70;39.80
12849;DHT22;6493;50.928;7.172;2023-06-26T23:12:50;15.70;40.00
12849;DHT22;6493;50.928;7.172;2023-06-26T23:17:53;15.60;40.00
12849;DHT22;6493;50.928;7.172;2023-06-26T23:22:59;15.60;40.10
12849;DHT22;6493;50.928;7.172;2023-06-26T23:28:03;15.50;40.30
12849;DHT22;6493;50.928;7.172;2023-06-26T23:33:07;15.50;40.30
12849;DHT22;6493;50.928;7.172;2023-06-26T23:38:12;15.40;40.30
12849;DHT22;6493;50.928;7.172;2023-06-26T23:43:15;15.30;40.40
12849;DHT22;6493;50.928;7.172;2023-06-26T23:48:19;15.30;40.50
12849;DHT22;6493;50.928;7.172;2023-06-26T23:53:24;15.20;40.50
12849;DHT22;6493;50.928;7.172;2023-06-26T23:58:28;15.20;40.70
